Time;durP1;ratioP1;P1;durP2;ratioP2;P2;SDS_P1;SDS_P2;PMS_P1;PMS_P2;Temp;Humidity;BMP_temperature;BMP_pressure;BME280_temperature;BME280_humidity;BME280_pressure;Samples;Min_cycle;Max_cycle;Signal;HPM_P1;HPM_P2
2022/07/25 00:00:11;;;;;;;2.60;1.27;;;;;;;;;;5013431;28;20042;-81
2022/07/25 00:02:36;;;;;;;3.30;1.48;;;;;;;;;;5013775;28;20057;-81
2022/07/25 00:05:03;;;;;;;3.83;1.30;;;;;;;;;;5006049;28;20574;-81
2022/07/25 00:07:31;;;;;;;6.53;1.75;;;;;;;;;;5004506;28;20056;-81
2022/07/25 00:09:56;;;;;;;3.28;1.30;;;;;;;;;;5000271;28;20034;-82
2022/07/25 00:12:23;;;;;;;2.80;1.35;;;;;;;;;;5012223;28;20052;-82
2022/07/25 00:14:48;;;;;;;4.07;1.50;;;;;;;;;;5005576;28;20092;-82
2022/07/25 00:17:13;;;;;;;2.78;1.30;;;;;;;;;;4995476;28;20431;-82
2022/07/25 00:19:39;;;;;;;3.53;1.30;;;;;;;;;;5000189;28;20080;-81
2022/07/25 00:22:05;;;;;;;2.80;1.50;;;;;;;;;;4985499;28;20046;-81
2022/07/25 00:24:30;;;;;;;2.40;1.20;;;;;;;;;;4997177;28;20471;-82
2022/07/25 00:26:56;;;;;;;3.88;1.52;;;;;;;;;;5003392;28;20512;-81
2022/07/25 00:29:21;;;;;;;3.25;1.30;;;;;;;;;;5017314;28;20049;-81
2022/07/25 00:31:47;;;;;;;2.97;1.50;;;;;;;;;;5003995;28;20091;-81
2022/07/25 00:34:12;;;;;;;3.00;1.38;;;;;;;;;;5007124;28;20540;-81
2022/07/25 00:36:37;;;;;;;2.63;1.25;;;;;;;;;;4996525;28;20046;-81
2022/07/25 00:39:04;;;;;;;3.00;1.45;;;;;;;;;;5008471;28;20033;-81
2022/07/25 00:41:29;;;;;;;3.08;1.45;;;;;;;;;;4998246;28;20038;-82
2022/07/25 00:43:55;;;;;;;4.00;1.50;;;;;;;;;;5019945;28;20038;-81
2022/07/25 00:46:20;;;;;;;3.42;1.30;;;;;;;;;;4997088;28;20033;-81
2022/07/25 00:48:45;;;;;;;2.58;1.30;;;;;;;;;;5000438;28;20032;-81
2022/07/25 00:51:11;;;;;;;3.42;1.45;;;;;;;;;;5000649;28;20045;-81
2022/07/25 00:53:37;;;;;;;3.00;1.17;;;;;;;;;;4998395;28;20099;-80
2022/07/25 00:56:04;;;;;;;2.97;1.35;;;;;;;;;;5014303;28;20092;-82
2022/07/25 00:58:29;;;;;;;3.27;1.47;;;;;;;;;;5000854;28;20050;-82
2022/07/25 01:00:54;;;;;;;2.10;1.00;;;;;;;;;;5002639;28;20497;-82
2022/07/25 01:03:20;;;;;;;2.85;1.27;;;;;;;;;;4987789;28;20494;-81
2022/07/25 01:05:45;;;;;;;2.50;1.10;;;;;;;;;;4984047;28;20520;-81
2022/07/25 01:08:11;;;;;;;4.60;1.30;;;;;;;;;;4986279;28;20038;-81
2022/07/25 01:10:37;;;;;;;2.50;1.27;;;;;;;;;;5000767;28;20061;-82
2022/07/25 01:13:02;;;;;;;2.33;1.20;;;;;;;;;;4986298;28;20034;-82
2022/07/25 01:15:28;;;;;;;2.40;1.15;;;;;;;;;;4986326;28;20046;-81
2022/07/25 01:17:54;;;;;;;2.75;1.40;;;;;;;;;;5007590;28;20497;-82
2022/07/25 01:20:21;;;;;;;2.53;0.98;;;;;;;;;;5001023;28;20120;-81
2022/07/25 01:22:47;;;;;;;2.55;1.20;;;;;;;;;;5008170;28;20532;-81
2022/07/25 01:25:13;;;;;;;2.50;1.17;;;;;;;;;;5000763;28;20112;-82
2022/07/25 01:27:40;;;;;;;2.50;1.27;;;;;;;;;;5012822;28;20175;-82
2022/07/25 01:30:07;;;;;;;2.72;1.10;;;;;;;;;;5001632;28;20048;-83
2022/07/25 01:32:34;;;;;;;2.53;1.23;;;;;;;;;;5012388;28;20034;-81
2022/07/25 01:35:00;;;;;;;2.60;1.20;;;;;;;;;;5015859;28;20155;-82
2022/07/25 01:37:25;;;;;;;2.33;1.10;;;;;;;;;;4998035;28;20124;-83
2022/07/25 01:39:51;;;;;;;2.88;1.38;;;;;;;;;;4985875;28;20489;-81
2022/07/25 01:42:16;;;;;;;2.55;1.08;;;;;;;;;;4996018;28;20745;-82
2022/07/25 01:44:41;;;;;;;2.65;1.20;;;;;;;;;;5012968;28;20042;-81
2022/07/25 01:47:07;;;;;;;2.45;1.20;;;;;;;;;;4990330;28;20568;-81
2022/07/25 01:49:35;;;;;;;2.50;1.25;;;;;;;;;;4985513;28;20049;-81
2022/07/25 01:52:00;;;;;;;3.47;1.38;;;;;;;;;;5001590;28;20030;-82
2022/07/25 01:54:25;;;;;;;2.38;1.20;;;;;;;;;;5013735;28;20073;-83
2022/07/25 01:56:51;;;;;;;2.65;1.13;;;;;;;;;;5016365;28;20370;-82
2022/07/25 01:59:16;;;;;;;2.88;1.20;;;;;;;;;;5000933;28;20045;-82
2022/07/25 02:01:42;;;;;;;2.55;1.20;;;;;;;;;;5011892;28;20136;-81
2022/07/25 02:04:08;;;;;;;2.63;1.30;;;;;;;;;;5002446;28;20049;-82
2022/07/25 02:06:34;;;;;;;2.95;1.30;;;;;;;;;;4999191;28;20572;-82
2022/07/25 02:08:59;;;;;;;3.53;1.23;;;;;;;;;;5002975;28;20038;-82
2022/07/25 02:11:25;;;;;;;3.03;1.40;;;;;;;;;;5001507;28;20111;-81
2022/07/25 02:13:50;;;;;;;2.83;1.35;;;;;;;;;;5001244;28;20167;-81
2022/07/25 02:16:16;;;;;;;2.75;1.17;;;;;;;;;;5006371;28;20037;-81
2022/07/25 02:18:42;;;;;;;2.30;1.10;;;;;;;;;;4999966;28;20037;-81
2022/07/25 02:21:09;;;;;;;2.40;1.30;;;;;;;;;;5000575;28;20417;-81
2022/07/25 02:23:35;;;;;;;2.43;1.33;;;;;;;;;;5000562;28;20045;-81
2022/07/25 02:26:00;;;;;;;2.70;1.35;;;;;;;;;;4983331;28;20378;-83
2022/07/25 02:28:26;;;;;;;3.08;1.30;;;;;;;;;;5012569;28;20045;-82
2022/07/25 02:30:51;;;;;;;3.45;1.25;;;;;;;;;;5016111;28;20032;-81
2022/07/25 02:33:17;;;;;;;2.65;1.20;;;;;;;;;;4984094;28;20029;-82
2022/07/25 02:35:42;;;;;;;2.45;1.10;;;;;;;;;;4999635;28;20044;-81
2022/07/25 02:38:07;;;;;;;3.05;1.50;;;;;;;;;;5008136;28;20042;-82
2022/07/25 02:40:33;;;;;;;2.67;1.40;;;;;;;;;;4993718;28;20037;-83
2022/07/25 02:42:58;;;;;;;2.70;1.10;;;;;;;;;;5004013;28;20045;-81
2022/07/25 02:45:23;;;;;;;2.78;1.10;;;;;;;;;;5015645;28;20046;-82
2022/07/25 02:47:49;;;;;;;4.88;1.10;;;;;;;;;;4988325;28;20432;-81
2022/07/25 02:50:14;;;;;;;3.67;1.48;;;;;;;;;;5006148;28;20041;-81
2022/07/25 02:52:40;;;;;;;2.95;1.60;;;;;;;;;;5015356;28;20038;-80
2022/07/25 02:55:06;;;;;;;2.45;1.20;;;;;;;;;;5014635;28;20038;-81
2022/07/25 02:57:31;;;;;;;2.60;1.33;;;;;;;;;;4998325;28;20531;-82
2022/07/25 02:59:56;;;;;;;3.33;1.27;;;;;;;;;;5002469;28;20034;-83
2022/07/25 03:02:22;;;;;;;2.35;1.20;;;;;;;;;;4997678;28;20117;-82
2022/07/25 03:04:47;;;;;;;3.35;1.20;;;;;;;;;;4984943;28;20061;-81
2022/07/25 03:07:12;;;;;;;3.10;1.38;;;;;;;;;;5010857;28;20038;-81
2022/07/25 03:09:38;;;;;;;2.80;1.30;;;;;;;;;;4985786;28;20042;-81
2022/07/25 03:12:03;;;;;;;2.53;1.25;;;;;;;;;;4997189;28;20048;-82
2022/07/25 03:14:29;;;;;;;2.60;1.40;;;;;;;;;;4998479;28;20042;-82
2022/07/25 03:16:54;;;;;;;2.50;1.20;;;;;;;;;;5012389;28;20026;-82
2022/07/25 03:19:19;;;;;;;2.83;1.40;;;;;;;;;;5014753;28;20034;-82
2022/07/25 03:21:45;;;;;;;3.35;1.40;;;;;;;;;;4997501;28;20045;-81
2022/07/25 03:24:10;;;;;;;2.92;1.40;;;;;;;;;;4998883;28;20045;-81
2022/07/25 03:26:36;;;;;;;2.67;1.23;;;;;;;;;;4996994;28;20064;-81
2022/07/25 03:29:01;;;;;;;2.22;1.23;;;;;;;;;;4997943;28;20057;-83
2022/07/25 03:31:27;;;;;;;2.95;1.15;;;;;;;;;;5014815;28;20045;-81
2022/07/25 03:33:52;;;;;;;2.78;1.15;;;;;;;;;;4996546;28;20049;-81
2022/07/25 03:36:18;;;;;;;3.30;1.42;;;;;;;;;;5003687;28;20493;-81
2022/07/25 03:38:43;;;;;;;2.55;1.42;;;;;;;;;;4997433;28;20052;-81
2022/07/25 03:41:09;;;;;;;4.55;1.42;;;;;;;;;;4997391;28;20493;-81
2022/07/25 03:43:34;;;;;;;2.72;1.10;;;;;;;;;;4995459;28;20112;-82
2022/07/25 03:45:59;;;;;;;2.95;1.30;;;;;;;;;;4997586;28;20034;-82
2022/07/25 03:48:24;;;;;;;2.60;1.30;;;;;;;;;;4997135;28;20037;-81
2022/07/25 03:50:50;;;;;;;3.28;1.20;;;;;;;;;;4982252;28;20095;-81
2022/07/25 03:53:15;;;;;;;3.10;1.17;;;;;;;;;;5006386;28;20042;-82
2022/07/25 03:55:40;;;;;;;3.88;1.45;;;;;;;;;;5009567;28;20034;-81
2022/07/25 03:58:06;;;;;;;2.30;1.10;;;;;;;;;;4992402;28;20052;-82
2022/07/25 04:00:32;;;;;;;3.80;1.42;;;;;;;;;;4989828;28;20038;-81
2022/07/25 04:02:57;;;;;;;2.92;1.20;;;;;;;;;;5004520;28;20390;-81
2022/07/25 04:05:23;;;;;;;2.30;1.20;;;;;;;;;;5002547;28;20512;-81
2022/07/25 04:07:48;;;;;;;2.78;1.40;;;;;;;;;;5003804;28;20041;-81
2022/07/25 04:10:14;;;;;;;3.42;1.13;;;;;;;;;;5002374;28;20120;-82
2022/07/25 04:12:39;;;;;;;5.38;1.27;;;;;;;;;;5002480;28;20050;-81
2022/07/25 04:15:05;;;;;;;3.80;1.25;;;;;;;;;;5009507;28;20591;-82
2022/07/25 04:17:30;;;;;;;2.80;1.20;;;;;;;;;;4983142;28;20034;-82
2022/07/25 04:19:56;;;;;;;2.38;1.20;;;;;;;;;;5007385;28;20120;-82
2022/07/25 04:22:21;;;;;;;3.53;1.20;;;;;;;;;;5016620;28;20037;-81
2022/07/25 04:24:47;;;;;;;3.00;1.45;;;;;;;;;;5000869;28;20088;-83
2022/07/25 04:27:12;;;;;;;2.72;1.25;;;;;;;;;;5007822;28;20445;-82
2022/07/25 04:29:38;;;;;;;2.28;1.10;;;;;;;;;;5001186;28;20034;-81
2022/07/25 04:32:04;;;;;;;2.20;1.13;;;;;;;;;;4991376;28;20029;-82
2022/07/25 04:34:29;;;;;;;2.95;1.20;;;;;;;;;;5003042;28;20057;-82
2022/07/25 04:36:54;;;;;;;2.15;1.02;;;;;;;;;;5018167;28;20083;-81
2022/07/25 04:39:20;;;;;;;2.10;1.10;;;;;;;;;;5007504;28;20034;-81
2022/07/25 04:41:45;;;;;;;2.70;1.30;;;;;;;;;;5000897;28;20041;-82
2022/07/25 04:44:10;;;;;;;2.75;1.30;;;;;;;;;;5000646;28;20038;-81
2022/07/25 04:46:36;;;;;;;2.33;1.13;;;;;;;;;;4994653;28;20045;-81
2022/07/25 04:49:01;;;;;;;2.33;1.15;;;;;;;;;;4996376;28;20045;-81
2022/07/25 04:51:27;;;;;;;2.80;1.40;;;;;;;;;;5002972;28;20065;-81
2022/07/25 04:53:52;;;;;;;2.42;1.20;;;;;;;;;;4988453;28;20058;-81
2022/07/25 04:56:17;;;;;;;2.72;1.30;;;;;;;;;;4997219;28;20033;-82
2022/07/25 04:58:43;;;;;;;2.78;1.30;;;;;;;;;;5001234;28;20072;-81
2022/07/25 05:01:08;;;;;;;2.95;1.10;;;;;;;;;;5015313;28;20041;-82
2022/07/25 05:03:33;;;;;;;4.18;1.30;;;;;;;;;;4999656;28;20437;-82
2022/07/25 05:05:59;;;;;;;3.22;1.48;;;;;;;;;;4998995;28;20044;-81
2022/07/25 05:08:24;;;;;;;2.92;1.52;;;;;;;;;;5006528;28;20036;-82
2022/07/25 05:10:49;;;;;;;3.47;1.65;;;;;;;;;;5013331;28;20038;-82
2022/07/25 05:13:15;;;;;;;2.95;1.33;;;;;;;;;;5014858;28;21474;-83
2022/07/25 05:15:40;;;;;;;3.67;1.70;;;;;;;;;;4999374;28;20032;-81
2022/07/25 05:18:06;;;;;;;2.58;1.40;;;;;;;;;;5011199;28;20904;-82
2022/07/25 05:20:31;;;;;;;3.25;1.63;;;;;;;;;;5000276;28;20513;-82
2022/07/25 05:22:56;;;;;;;3.00;1.45;;;;;;;;;;4998276;28;20030;-83
2022/07/25 05:25:22;;;;;;;2.80;1.30;;;;;;;;;;5003476;28;20036;-82
2022/07/25 05:27:47;;;;;;;2.92;1.25;;;;;;;;;;5001045;28;20044;-81
2022/07/25 05:30:13;;;;;;;4.03;1.30;;;;;;;;;;5015986;28;20117;-82
2022/07/25 05:32:41;;;;;;;3.33;1.55;;;;;;;;;;5006487;28;20038;-82
2022/07/25 05:35:06;;;;;;;;;;;;;;;;;;5015598;28;20077;-82
2022/07/25 05:37:33;;;;;;;5.93;1.55;;;;;;;;;;5015358;28;19948;-81
2022/07/25 05:39:58;;;;;;;4.40;1.50;;;;;;;;;;5002172;28;20192;-82
2022/07/25 05:42:23;;;;;;;3.90;1.45;;;;;;;;;;5000333;28;20073;-82
2022/07/25 05:44:49;;;;;;;3.08;1.40;;;;;;;;;;5007109;28;20041;-81
2022/07/25 05:47:14;;;;;;;3.03;1.50;;;;;;;;;;5012373;28;20030;-82
2022/07/25 05:49:40;;;;;;;3.67;1.60;;;;;;;;;;5000733;28;20041;-81
2022/07/25 05:52:06;;;;;;;3.10;1.42;;;;;;;;;;4999733;28;20134;-81
2022/07/25 05:54:32;;;;;;;3.22;1.52;;;;;;;;;;5015329;28;20049;-82
2022/07/25 05:56:58;;;;;;;3.25;1.63;;;;;;;;;;5001644;28;20033;-81
2022/07/25 05:59:23;;;;;;;3.95;1.50;;;;;;;;;;5000019;28;20073;-82
2022/07/25 06:01:48;;;;;;;3.05;1.70;;;;;;;;;;5002835;28;20060;-83
2022/07/25 06:04:14;;;;;;;5.43;1.80;;;;;;;;;;4999287;28;20660;-82
2022/07/25 06:06:39;;;;;;;3.88;1.83;;;;;;;;;;5013716;28;20100;-82
2022/07/25 06:09:05;;;;;;;3.10;1.77;;;;;;;;;;5000386;28;20826;-82
2022/07/25 06:11:31;;;;;;;3.10;1.65;;;;;;;;;;5012837;28;20125;-84
2022/07/25 06:13:56;;;;;;;3.53;1.70;;;;;;;;;;4996457;28;20040;-81
2022/07/25 06:16:22;;;;;;;4.13;1.80;;;;;;;;;;5003081;28;20029;-80
2022/07/25 06:18:47;;;;;;;4.03;1.48;;;;;;;;;;5003805;28;20104;-81
2022/07/25 06:21:12;;;;;;;3.50;1.52;;;;;;;;;;5011516;28;20111;-81
2022/07/25 06:23:38;;;;;;;2.92;1.38;;;;;;;;;;4996474;28;20078;-84
2022/07/25 06:26:03;;;;;;;3.92;1.65;;;;;;;;;;5021395;28;20573;-80
2022/07/25 06:28:29;;;;;;;4.45;1.70;;;;;;;;;;4999281;28;20093;-80
2022/07/25 06:30:54;;;;;;;3.53;1.88;;;;;;;;;;5001185;28;20034;-81
2022/07/25 06:33:19;;;;;;;3.15;1.67;;;;;;;;;;5006111;28;20108;-80
2022/07/25 06:35:45;;;;;;;4.30;1.88;;;;;;;;;;5004239;28;20030;-80
2022/07/25 06:38:10;;;;;;;3.13;1.75;;;;;;;;;;4998326;28;20042;-80
2022/07/25 06:40:35;;;;;;;4.60;1.85;;;;;;;;;;4999433;28;20125;-80
2022/07/25 06:43:01;;;;;;;3.38;1.95;;;;;;;;;;5009743;28;20040;-81
2022/07/25 06:45:26;;;;;;;3.40;1.70;;;;;;;;;;5006171;28;20433;-81
2022/07/25 06:47:51;;;;;;;3.92;1.90;;;;;;;;;;5000745;28;20030;-81
2022/07/25 06:50:18;;;;;;;3.70;2.10;;;;;;;;;;5012540;28;20030;-81
2022/07/25 06:52:44;;;;;;;5.47;1.90;;;;;;;;;;5012416;28;20045;-82
2022/07/25 06:55:11;;;;;;;3.65;1.77;;;;;;;;;;5004512;28;20038;-82
2022/07/25 06:57:36;;;;;;;4.95;2.10;;;;;;;;;;4994871;28;20151;-81
2022/07/25 07:00:06;;;;;;;4.40;1.90;;;;;;;;;;5000396;28;20638;-81
2022/07/25 07:02:32;;;;;;;4.15;2.03;;;;;;;;;;5005186;28;20041;-81
2022/07/25 07:04:57;;;;;;;4.07;2.35;;;;;;;;;;4998334;28;20039;-81
2022/07/25 07:07:23;;;;;;;4.82;2.30;;;;;;;;;;4998056;28;20034;-81
2022/07/25 07:09:49;;;;;;;3.70;2.10;;;;;;;;;;4996180;28;20033;-82
2022/07/25 07:12:15;;;;;;;3.60;2.13;;;;;;;;;;4998590;28;20029;-82
2022/07/25 07:14:42;;;;;;;3.25;2.00;;;;;;;;;;5006697;28;20333;-81
2022/07/25 07:17:07;;;;;;;;;;;;;;;;;;5018964;28;20112;-83
2022/07/25 07:19:33;;;;;;;3.47;2.20;;;;;;;;;;5008689;28;20039;-81
2022/07/25 07:21:58;;;;;;;4.45;2.00;;;;;;;;;;4999801;28;20276;-81
2022/07/25 07:24:23;;;;;;;3.88;2.05;;;;;;;;;;4996510;28;20052;-81
2022/07/25 07:26:49;;;;;;;4.25;2.40;;;;;;;;;;4997053;28;20038;-84
2022/07/25 07:29:14;;;;;;;4.90;2.20;;;;;;;;;;5011771;28;20563;-82
2022/07/25 07:31:40;;;;;;;3.63;2.53;;;;;;;;;;5005381;28;20100;-80
2022/07/25 07:34:05;;;;;;;4.50;2.50;;;;;;;;;;4999675;28;20072;-83
2022/07/25 07:36:31;;;;;;;4.25;2.53;;;;;;;;;;4988327;28;20033;-82
2022/07/25 07:38:56;;;;;;;4.60;3.00;;;;;;;;;;4982225;28;20034;-82
2022/07/25 07:41:21;;;;;;;5.03;2.50;;;;;;;;;;4998669;28;20030;-82
2022/07/25 07:43:49;;;;;;;4.63;2.60;;;;;;;;;;5011173;28;20389;-82
2022/07/25 07:46:15;;;;;;;4.38;2.90;;;;;;;;;;4984934;28;20061;-82
2022/07/25 07:48:40;;;;;;;4.35;2.70;;;;;;;;;;4980536;28;20490;-81
2022/07/25 07:51:05;;;;;;;5.20;2.83;;;;;;;;;;4999119;28;20041;-81
2022/07/25 07:56:17;;;;;;;4.18;2.80;;;;;;;;;;5015033;28;20045;-82
2022/07/25 07:58:46;;;;;;;3.67;2.55;;;;;;;;;;5001333;28;20052;-83
2022/07/25 08:01:11;;;;;;;4.78;2.55;;;;;;;;;;4986810;28;20095;-82
2022/07/25 08:03:36;;;;;;;4.88;2.92;;;;;;;;;;5008093;28;20096;-80
2022/07/25 08:06:03;;;;;;;4.60;2.95;;;;;;;;;;5001624;28;20040;-80
2022/07/25 08:08:29;;;;;;;5.17;2.83;;;;;;;;;;4990492;28;20030;-81
2022/07/25 08:10:54;;;;;;;5.28;2.92;;;;;;;;;;4997663;28;20044;-82
2022/07/25 08:13:22;;;;;;;4.57;2.95;;;;;;;;;;4996677;28;20042;-81
2022/07/25 08:15:51;;;;;;;4.70;3.10;;;;;;;;;;5005421;28;20168;-81
2022/07/25 08:18:16;;;;;;;6.38;3.28;;;;;;;;;;4996142;28;20034;-82
2022/07/25 08:20:42;;;;;;;4.50;2.90;;;;;;;;;;4998673;28;20038;-80
2022/07/25 08:23:09;;;;;;;4.57;2.80;;;;;;;;;;5000479;28;20509;-81
2022/07/25 08:25:35;;;;;;;5.20;3.50;;;;;;;;;;4984415;28;20104;-81
2022/07/25 08:28:00;;;;;;;5.10;3.50;;;;;;;;;;5005320;28;20026;-81
2022/07/25 08:30:26;;;;;;;4.80;3.25;;;;;;;;;;4981493;28;20049;-82
2022/07/25 08:32:54;;;;;;;6.40;3.40;;;;;;;;;;5004994;28;20130;-83
2022/07/25 08:35:20;;;;;;;4.78;3.30;;;;;;;;;;5011235;28;20061;-81
2022/07/25 08:37:46;;;;;;;4.60;3.38;;;;;;;;;;5013583;28;21509;-83
2022/07/25 08:40:13;;;;;;;5.47;3.23;;;;;;;;;;5001816;28;20037;-82
2022/07/25 08:42:39;;;;;;;4.75;3.10;;;;;;;;;;5015600;28;20480;-81
2022/07/25 08:45:11;;;;;;;3.83;2.72;;;;;;;;;;5015674;28;20034;-83
2022/07/25 08:47:37;;;;;;;4.40;2.95;;;;;;;;;;5001205;28;20041;-81
2022/07/25 08:50:05;;;;;;;4.70;3.08;;;;;;;;;;5000773;28;20158;-81
2022/07/25 08:52:34;;;;;;;4.22;2.60;;;;;;;;;;5006414;28;20038;-82
2022/07/25 08:55:08;;;;;;;4.40;3.25;;;;;;;;;;5015429;28;20061;-84
2022/07/25 08:57:34;;;;;;;3.78;2.70;;;;;;;;;;5018850;28;20041;-82
2022/07/25 09:00:00;;;;;;;4.20;2.72;;;;;;;;;;5000948;28;20045;-82
2022/07/25 09:02:26;;;;;;;4.87;3.00;;;;;;;;;;5013916;28;20099;-82
2022/07/25 09:04:52;;;;;;;4.43;3.03;;;;;;;;;;5014179;28;20030;-82
2022/07/25 09:07:37;;;;;;;3.65;2.33;;;;;;;;;;4999218;28;20056;-82
2022/07/25 09:10:19;;;;;;;4.78;2.60;;;;;;;;;;4999714;28;20030;-83
2022/07/25 09:12:57;;;;;;;3.65;2.60;;;;;;;;;;5013964;28;20038;-82
2022/07/25 09:15:28;;;;;;;5.65;2.70;;;;;;;;;;4998677;28;20030;-82
2022/07/25 09:17:58;;;;;;;3.95;2.75;;;;;;;;;;5001234;28;20489;-83
2022/07/25 09:20:36;;;;;;;4.22;2.85;;;;;;;;;;5014136;28;20421;-85
2022/07/25 09:23:01;;;;;;;5.13;3.00;;;;;;;;;;5000065;28;20041;-83
2022/07/25 09:25:28;;;;;;;5.27;2.90;;;;;;;;;;5013909;28;20048;-83
2022/07/25 09:27:54;;;;;;;4.13;2.80;;;;;;;;;;5000710;28;20037;-83
2022/07/25 09:30:20;;;;;;;3.88;2.47;;;;;;;;;;5014187;28;20548;-82
2022/07/25 09:32:45;;;;;;;4.87;2.70;;;;;;;;;;5014607;28;20057;-81
2022/07/25 09:35:11;;;;;;;4.63;3.00;;;;;;;;;;4984979;28;20048;-81
2022/07/25 09:37:37;;;;;;;4.57;2.90;;;;;;;;;;5012693;28;20464;-82
2022/07/25 09:40:12;;;;;;;4.97;2.78;;;;;;;;;;5007650;28;20034;-81
2022/07/25 09:42:41;;;;;;;4.43;2.83;;;;;;;;;;4994529;28;20045;-81
2022/07/25 09:45:13;;;;;;;3.55;2.58;;;;;;;;;;5023138;28;20041;-81
2022/07/25 09:47:57;;;;;;;3.90;2.78;;;;;;;;;;5013368;28;20601;-80
2022/07/25 09:50:24;;;;;;;4.05;2.83;;;;;;;;;;5005471;28;20398;-81
2022/07/25 09:52:51;;;;;;;3.72;2.95;;;;;;;;;;4990250;28;20026;-82
2022/07/25 09:55:18;;;;;;;5.72;3.25;;;;;;;;;;5015709;28;20401;-81
2022/07/25 09:57:46;;;;;;;4.78;2.70;;;;;;;;;;4999464;28;20037;-82
2022/07/25 10:00:13;;;;;;;3.92;2.70;;;;;;;;;;5006461;28;20038;-85
2022/07/25 10:02:51;;;;;;;4.13;2.80;;;;;;;;;;5018405;28;20133;-81
2022/07/25 10:05:41;;;;;;;3.63;2.67;;;;;;;;;;5012935;28;20042;-81
2022/07/25 10:08:08;;;;;;;3.92;2.60;;;;;;;;;;5015657;28;20481;-82
2022/07/25 10:10:37;;;;;;;;;;;;;;;;;;4998656;28;20129;-82
2022/07/25 10:13:10;;;;;;;3.80;2.50;;;;;;;;;;5005806;28;19913;-82
2022/07/25 10:15:45;;;;;;;3.40;2.40;;;;;;;;;;5012694;28;20040;-84
2022/07/25 10:18:11;;;;;;;3.50;2.63;;;;;;;;;;5006186;28;20413;-82
2022/07/25 10:20:40;;;;;;;4.47;2.75;;;;;;;;;;5006102;28;20038;-84
2022/07/25 10:23:25;;;;;;;4.10;2.90;;;;;;;;;;4985646;28;20584;-82
2022/07/25 10:26:06;;;;;;;5.68;3.05;;;;;;;;;;5015969;28;20036;-83
2022/07/25 10:28:36;;;;;;;4.28;3.00;;;;;;;;;;5017888;28;20493;-83
2022/07/25 10:31:02;;;;;;;5.15;3.15;;;;;;;;;;4991082;28;20038;-85
2022/07/25 10:33:27;;;;;;;4.10;2.80;;;;;;;;;;5013255;28;20052;-83
2022/07/25 10:35:52;;;;;;;4.33;3.37;;;;;;;;;;5015873;28;20292;-82
2022/07/25 10:38:24;;;;;;;5.37;3.00;;;;;;;;;;4999588;28;20042;-83
2022/07/25 10:40:49;;;;;;;4.80;3.45;;;;;;;;;;4998957;28;20485;-82
2022/07/25 10:43:19;;;;;;;4.68;3.10;;;;;;;;;;5014795;28;20037;-82
2022/07/25 10:45:50;;;;;;;6.45;3.38;;;;;;;;;;5008776;28;20160;-82
2022/07/25 10:48:26;;;;;;;4.78;3.50;;;;;;;;;;5013084;28;20029;-84
2022/07/25 10:51:03;;;;;;;3.80;2.70;;;;;;;;;;5001858;28;20033;-83
2022/07/25 10:53:46;;;;;;;4.80;3.08;;;;;;;;;;5021268;28;20065;-82
2022/07/25 10:56:15;;;;;;;5.28;3.00;;;;;;;;;;4999435;28;20034;-84
2022/07/25 10:58:43;;;;;;;4.63;2.90;;;;;;;;;;5006083;28;20091;-83
2022/07/25 11:01:09;;;;;;;4.32;2.63;;;;;;;;;;5015679;28;20436;-83
2022/07/25 11:03:34;;;;;;;3.60;2.72;;;;;;;;;;5000863;28;20072;-82
2022/07/25 11:06:00;;;;;;;3.60;2.93;;;;;;;;;;4996033;28;20057;-86
2022/07/25 11:08:33;;;;;;;4.70;2.93;;;;;;;;;;5014164;28;20058;-85
2022/07/25 11:10:58;;;;;;;5.15;3.13;;;;;;;;;;5015028;28;20032;-82
2022/07/25 11:13:23;;;;;;;5.20;3.17;;;;;;;;;;5013673;28;20482;-82
2022/07/25 11:15:49;;;;;;;4.13;3.10;;;;;;;;;;4997286;28;20034;-82
2022/07/25 11:18:14;;;;;;;4.13;2.90;;;;;;;;;;5012943;28;20113;-83
2022/07/25 11:20:42;;;;;;;4.57;2.60;;;;;;;;;;4998451;28;20034;-83
2022/07/25 11:23:08;;;;;;;3.97;3.00;;;;;;;;;;5005276;28;20840;-82
2022/07/25 11:25:33;;;;;;;5.43;3.23;;;;;;;;;;4998571;28;20057;-82
2022/07/25 11:28:02;;;;;;;5.40;3.10;;;;;;;;;;4999432;28;20037;-82
2022/07/25 11:30:28;;;;;;;4.65;3.10;;;;;;;;;;5013647;28;20424;-82
2022/07/25 11:33:00;;;;;;;4.65;3.17;;;;;;;;;;4997913;28;20038;-82
2022/07/25 11:35:29;;;;;;;5.25;3.13;;;;;;;;;;4994076;28;20042;-82
2022/07/25 11:37:56;;;;;;;4.40;3.10;;;;;;;;;;5000156;28;20567;-82
2022/07/25 11:40:21;;;;;;;4.55;2.95;;;;;;;;;;5005243;28;20079;-83
2022/07/25 11:42:48;;;;;;;5.80;2.97;;;;;;;;;;4998019;28;20544;-82
2022/07/25 11:45:17;;;;;;;5.53;3.20;;;;;;;;;;5006816;28;20069;-85
2022/07/25 11:47:42;;;;;;;4.97;3.08;;;;;;;;;;5012843;28;20041;-83
2022/07/25 11:50:13;;;;;;;6.20;3.60;;;;;;;;;;5009314;28;20034;-83
2022/07/25 11:52:42;;;;;;;8.02;3.65;;;;;;;;;;4986634;28;20034;-82
2022/07/25 11:55:19;;;;;;;4.75;3.67;;;;;;;;;;4997909;28;20442;-83
2022/07/25 11:57:45;;;;;;;6.18;3.20;;;;;;;;;;5021954;28;20455;-83
2022/07/25 12:00:18;;;;;;;4.40;3.20;;;;;;;;;;5004031;28;20427;-82
2022/07/25 12:02:44;;;;;;;4.97;3.28;;;;;;;;;;4996647;28;20061;-82
2022/07/25 12:05:11;;;;;;;4.70;3.30;;;;;;;;;;5011282;28;20512;-83
2022/07/25 12:07:39;;;;;;;6.22;3.50;;;;;;;;;;5012233;28;20038;-81
2022/07/25 12:10:20;;;;;;;4.85;3.28;;;;;;;;;;5013984;28;20040;-83
2022/07/25 12:12:54;;;;;;;4.32;3.05;;;;;;;;;;4996819;28;20066;-83
2022/07/25 12:15:25;;;;;;;5.10;3.45;;;;;;;;;;5008901;28;20562;-83
2022/07/25 12:17:52;;;;;;;5.30;3.40;;;;;;;;;;5000665;28;20452;-84
2022/07/25 12:20:20;;;;;;;4.63;3.25;;;;;;;;;;5001551;28;20041;-83
2022/07/25 12:22:47;;;;;;;4.88;3.60;;;;;;;;;;5005021;28;20469;-83
2022/07/25 12:25:12;;;;;;;4.80;3.42;;;;;;;;;;5003511;28;20062;-83
2022/07/25 12:27:38;;;;;;;4.50;3.67;;;;;;;;;;4999821;28;20057;-82
2022/07/25 12:30:05;;;;;;;4.78;3.30;;;;;;;;;;5000473;28;20049;-82
2022/07/25 12:32:30;;;;;;;4.97;3.70;;;;;;;;;;4997807;28;20107;-84
2022/07/25 12:34:55;;;;;;;5.60;4.00;;;;;;;;;;5009096;28;20034;-82
2022/07/25 12:37:21;;;;;;;5.15;3.85;;;;;;;;;;4981770;28;20439;-82
2022/07/25 12:39:47;;;;;;;4.68;3.63;;;;;;;;;;5006589;28;20123;-82
2022/07/25 12:42:12;;;;;;;6.50;4.20;;;;;;;;;;4998732;28;20030;-81
2022/07/25 12:44:37;;;;;;;4.40;3.72;;;;;;;;;;5001292;28;20108;-82
2022/07/25 12:47:03;;;;;;;5.30;4.07;;;;;;;;;;5000012;28;20041;-82
2022/07/25 12:49:28;;;;;;;5.88;3.65;;;;;;;;;;4999201;28;20084;-81
2022/07/25 12:51:54;;;;;;;5.15;3.65;;;;;;;;;;5014453;28;20053;-87
2022/07/25 12:54:19;;;;;;;5.28;4.00;;;;;;;;;;4999773;28;20549;-82
2022/07/25 12:56:44;;;;;;;5.35;3.88;;;;;;;;;;5008769;28;20034;-83
2022/07/25 12:59:10;;;;;;;4.63;3.53;;;;;;;;;;4999550;28;20046;-84
2022/07/25 13:01:35;;;;;;;4.20;3.47;;;;;;;;;;4999976;28;20041;-86
2022/07/25 13:04:00;;;;;;;5.78;3.80;;;;;;;;;;5008721;28;20041;-83
2022/07/25 13:06:26;;;;;;;4.88;3.80;;;;;;;;;;5007569;28;20045;-83
2022/07/25 13:08:51;;;;;;;6.50;3.75;;;;;;;;;;5014303;28;20049;-83
2022/07/25 13:11:16;;;;;;;4.53;3.50;;;;;;;;;;4997721;28;20045;-83
2022/07/25 13:13:42;;;;;;;5.22;3.70;;;;;;;;;;5000680;28;20071;-82
2022/07/25 13:16:10;;;;;;;5.93;3.58;;;;;;;;;;5007418;28;20060;-81
2022/07/25 13:18:35;;;;;;;5.47;3.80;;;;;;;;;;5005961;28;20052;-83
2022/07/25 13:21:02;;;;;;;4.85;3.55;;;;;;;;;;4999409;28;20037;-85
2022/07/25 13:23:28;;;;;;;4.50;3.40;;;;;;;;;;4998295;28;20524;-82
2022/07/25 13:25:53;;;;;;;4.40;3.40;;;;;;;;;;5015066;28;20037;-82
2022/07/25 13:28:18;;;;;;;5.03;3.97;;;;;;;;;;5002664;28;20041;-82
2022/07/25 13:30:44;;;;;;;5.38;3.65;;;;;;;;;;5013779;28;20044;-83
2022/07/25 13:33:09;;;;;;;5.72;3.75;;;;;;;;;;4989422;28;20124;-82
2022/07/25 13:35:35;;;;;;;5.05;4.03;;;;;;;;;;5016370;28;20062;-83
2022/07/25 13:38:00;;;;;;;5.47;3.67;;;;;;;;;;4998253;28;20030;-83
2022/07/25 13:40:25;;;;;;;5.53;3.80;;;;;;;;;;5000356;28;20396;-83
2022/07/25 13:42:51;;;;;;;6.40;3.67;;;;;;;;;;5014425;28;20034;-82
2022/07/25 13:45:17;;;;;;;5.05;3.47;;;;;;;;;;5008878;28;20033;-83
2022/07/25 13:47:42;;;;;;;4.78;3.47;;;;;;;;;;5001442;28;20064;-83
2022/07/25 13:50:08;;;;;;;5.13;3.50;;;;;;;;;;4991347;28;20034;-82
2022/07/25 13:52:33;;;;;;;5.47;3.78;;;;;;;;;;5006234;28;20045;-82
2022/07/25 13:54:59;;;;;;;4.65;3.35;;;;;;;;;;5000696;28;20034;-83
2022/07/25 13:57:24;;;;;;;5.75;4.20;;;;;;;;;;5009108;28;20092;-83
2022/07/25 13:59:49;;;;;;;5.22;3.72;;;;;;;;;;5006672;28;20062;-83
2022/07/25 14:02:15;;;;;;;5.50;3.65;;;;;;;;;;4996032;28;20076;-84
2022/07/25 14:04:40;;;;;;;5.03;3.40;;;;;;;;;;4980754;28;20052;-82
2022/07/25 14:07:05;;;;;;;6.95;3.70;;;;;;;;;;5000852;28;20037;-84
2022/07/25 14:09:31;;;;;;;4.75;3.53;;;;;;;;;;5003080;28;20053;-86
2022/07/25 14:11:56;;;;;;;4.63;3.55;;;;;;;;;;5000817;28;20491;-84
2022/07/25 14:14:21;;;;;;;4.40;3.72;;;;;;;;;;5012100;28;20227;-84
2022/07/25 14:16:47;;;;;;;5.03;3.70;;;;;;;;;;4995483;28;20042;-83
2022/07/25 14:19:14;;;;;;;5.15;3.58;;;;;;;;;;4984528;28;20436;-82
2022/07/25 14:21:39;;;;;;;5.28;3.58;;;;;;;;;;4999594;28;20091;-82
2022/07/25 14:24:05;;;;;;;4.45;3.15;;;;;;;;;;4999364;28;20033;-82
2022/07/25 14:26:30;;;;;;;4.78;3.45;;;;;;;;;;5013155;28;20405;-82
2022/07/25 14:28:56;;;;;;;5.68;3.63;;;;;;;;;;5002531;28;20053;-84
2022/07/25 14:31:22;;;;;;;4.70;3.30;;;;;;;;;;5002308;28;20033;-83
2022/07/25 14:33:47;;;;;;;5.07;3.80;;;;;;;;;;4999096;28;20217;-82
2022/07/25 14:36:13;;;;;;;4.60;3.22;;;;;;;;;;5006411;28;20452;-83
2022/07/25 14:38:38;;;;;;;4.38;3.20;;;;;;;;;;4999298;28;20044;-82
2022/07/25 14:41:04;;;;;;;5.10;4.00;;;;;;;;;;4998206;28;20033;-82